CPX779 Details

Departure: Chinggis Khaan International Airport (ZMUB)
Arrival: Incheon International Airport (RKSI) at N/A
Route: SND A575 PIDOX V1 PAMDA A326 DONVO G597 GONAV GONAV2M
Notes:


Current Weather Information
ZMUB 250500Z 27004MPS 210V300 9999 FEW030CB SCT033 19/08 Q1015 NOSIG RMK QFE654.2 44 MOP
RKSI 250500Z 29008KT 260V320 9999 FEW020 27/16 Q1013 NOSIG